Time;durP1;ratioP1;P1;durP2;ratioP2;P2;SDS_P1;SDS_P2;PMS_P1;PMS_P2;Temp;Humidity;BMP_temperature;BMP_pressure;BME280_temperature;BME280_humidity;BME280_pressure;Samples;Min_cycle;Max_cycle;Signal;HPM_P1;HPM_P2
2022/02/01 00:01:32;;;;;;;;;;;;;;;-18.33;89.79;100484.03;5052274;28;19929;-70
2022/02/01 00:04:02;;;;;;;;;;;;;;;-18.39;89.56;100485.31;5052479;28;19931;-70
2022/02/01 00:06:39;;;;;;;;;;;;;;;-18.47;89.56;100480.78;5052251;28;19925;-70
2022/02/01 00:09:16;;;;;;;;;;;;;;;-18.35;88.32;100474.78;5052149;28;19925;-70
2022/02/01 00:11:53;;;;;;;;;;;;;;;-18.42;88.84;100473.56;5052187;28;20291;-70
2022/02/01 00:14:28;;;;;;;;;;;;;;;-18.53;89.20;100474.59;5052129;28;19971;-70
2022/02/01 00:17:16;;;;;;;;;;;;;;;-18.54;88.80;100472.91;5056143;28;19925;-70
2022/02/01 00:20:03;;;;;;;;;;;;;;;-18.64;89.34;100483.94;5056396;28;19929;-70
2022/02/01 00:36:29;;;;;;;;;;;;;;;-18.95;88.99;100489.63;5033886;28;19932;-69
2022/02/01 00:39:00;;;;;;;;;;;;;;;-19.01;88.33;100490.88;5051234;28;19924;-71
2022/02/01 00:41:30;;;;;;;;;;;;;;;-18.98;88.85;100486.09;5055391;28;19924;-69
2022/02/01 00:43:57;;;;;;;;;;;;;;;-19.11;88.91;100487.00;5055714;28;19924;-70
2022/02/01 00:46:24;;;;;;;;;;;;;;;-18.98;89.44;100481.13;5055636;28;19925;-70
2022/02/01 00:48:50;;;;;;;;;;;;;;;-18.76;89.50;100480.78;5055592;28;19935;-70
2022/02/01 00:51:17;;;;;;;;;;;;;;;-18.68;89.01;100477.06;5055633;28;19932;-69
2022/02/01 00:53:43;;;;;;;;;;;;;;;-18.72;88.36;100478.53;5055553;28;19924;-70
2022/02/01 00:56:10;;;;;;;;;;;;;;;-18.76;88.38;100483.25;5055510;28;19924;-69
2022/02/01 00:58:38;;;;;;;;;;;;;;;-18.80;88.45;100477.25;5055395;28;19932;-69
2022/02/01 01:01:05;;;;;;;;;;;;;;;-18.78;88.80;100469.88;5055369;28;19929;-70
2022/02/01 01:03:32;;;;;;;;;;;;;;;-18.74;88.19;100475.09;5055668;28;19925;-71
2022/02/01 01:05:59;;;;;;;;;;;;;;;-18.72;88.04;100475.19;5055253;28;20322;-70
2022/02/01 01:08:26;;;;;;;;;;;;;;;-18.64;88.04;100470.66;5055194;28;19987;-69
2022/02/01 01:10:53;;;;;;;;;;;;;;;-18.68;87.93;100470.47;5055546;28;19925;-69
2022/02/01 01:13:43;;;;;;;;;;;;;;;-18.70;88.69;100471.16;5055286;28;19931;-71
2022/02/01 01:16:23;;;;;;;;;;;;;;;-18.66;88.44;100468.94;5055330;28;19924;-69
2022/02/01 01:19:08;;;;;;;;;;;;;;;-18.65;87.59;100467.31;5055218;28;19932;-69
2022/02/01 01:43:38;;;;;;;;;;;;;;;-18.56;87.42;100435.56;5034839;28;19956;-70
2022/02/01 01:46:28;;;;;;;;;;;;;;;-18.74;86.61;100427.94;5034973;28;19929;-70
2022/02/01 01:54:25;;;;;;;;;;;;;;;-18.74;87.51;100418.03;5034905;28;19947;-70
2022/02/01 01:56:53;;;;;;;;;;;;;;;-18.66;87.38;100418.44;5034734;28;19929;-70
2022/02/01 01:59:20;;;;;;;;;;;;;;;-18.70;87.08;100419.03;5034589;28;19925;-70
2022/02/01 02:01:47;;;;;;;;;;;;;;;-18.81;87.11;100415.13;5034158;28;20398;-69
2022/02/01 02:04:15;;;;;;;;;;;;;;;-18.60;86.88;100412.97;5034251;28;19932;-69
2022/02/01 02:06:41;;;;;;;;;;;;;;;-18.71;86.79;100415.72;5034280;28;19932;-70
2022/02/01 02:09:10;;;;;;;;;;;;;;;-18.90;86.72;100420.44;5034644;28;19929;-69
2022/02/01 02:11:47;;;;;;;;;;;;;;;-19.00;87.05;100415.72;5034223;28;19994;-69
2022/02/01 02:14:21;;;;;;;;;;;;;;;-18.90;87.09;100420.44;5033977;28;19929;-69
2022/02/01 02:16:49;;;;;;;;;;;;;;;-18.89;86.38;100413.06;5034223;28;20312;-69
2022/02/01 02:19:17;;;;;;;;;;;;;;;-18.85;86.26;100411.63;5034105;28;19925;-69
2022/02/01 02:21:49;;;;;;;;;;;;;;;-18.84;86.03;100410.84;5063532;22;19932;-78
2022/02/01 02:24:17;;;;;;;;;;;;;;;-18.71;86.48;100412.38;5053903;28;19925;-75
2022/02/01 02:26:44;;;;;;;;;;;;;;;-18.86;86.64;100402.47;5054073;28;19932;-70
2022/02/01 02:29:11;;;;;;;;;;;;;;;-18.88;86.59;100404.00;5053961;28;19925;-64
2022/02/01 02:31:39;;;;;;;;;;;;;;;-18.90;86.21;100406.41;5053698;28;19925;-65
2022/02/01 02:34:09;;;;;;;;;;;;;;;-18.80;86.42;100415.25;5053539;28;19983;-70
2022/02/01 02:36:39;;;;;;;;;;;;;;;-18.85;86.03;100411.63;5053834;28;20345;-79
2022/02/01 02:39:12;;;;;;;;;;;;;;;-18.87;85.90;100404.88;5053023;28;19935;-78
2022/02/01 02:41:49;;;;;;;;;;;;;;;-18.96;85.90;100413.47;5053466;28;20447;-63
2022/02/01 02:47:00;;;;;;;;;;;;;;;-19.08;86.43;100399.53;5053504;28;19958;-73
2022/02/01 02:49:27;;;;;;;;;;;;;;;-19.14;86.65;100395.91;5053338;28;19924;-67
2022/02/01 02:51:53;;;;;;;;;;;;;;;-19.04;86.94;100391.50;5053233;28;19924;-68
2022/02/01 02:54:23;;;;;;;;;;;;;;;-18.83;87.03;100386.91;5053314;28;19929;-69
2022/02/01 02:56:50;;;;;;;;;;;;;;;-18.87;86.65;100382.56;5053080;28;19925;-71
2022/02/01 02:59:17;;;;;;;;;;;;;;;-18.84;86.19;100380.25;5053381;28;19925;-66
2022/02/01 03:01:47;;;;;;;;;;;;;;;-18.92;86.17;100384.75;5053174;28;19932;-65
2022/02/01 03:04:13;;;;;;;;;;;;;;;-18.91;86.28;100387.31;5053306;28;20363;-77
2022/02/01 03:06:40;;;;;;;;;;;;;;;-18.76;85.97;100376.56;5053145;28;19925;-72
2022/02/01 03:09:07;;;;;;;;;;;;;;;-18.87;86.35;100378.44;5052921;28;19925;-74
2022/02/01 03:11:35;;;;;;;;;;;;;;;-18.87;86.10;100371.00;5052759;28;19931;-75
2022/02/01 03:14:05;;;;;;;;;;;;;;;-18.81;86.27;100370.47;5053009;28;19931;-72
2022/02/01 03:16:51;;;;;;;;;;;;;;;-18.95;86.78;100368.09;5052746;28;19925;-68
2022/02/01 03:22:03;;;;;;;;;;;;;;;-18.51;86.33;100361.38;5081386;22;19947;-70
2022/02/01 03:24:30;;;;;;;;;;;;;;;-18.47;85.96;100361.63;5072917;28;19925;-69
2022/02/01 03:26:58;;;;;;;;;;;;;;;-18.45;85.60;100354.25;5064733;28;19924;-70
2022/02/01 03:29:25;;;;;;;;;;;;;;;-18.60;85.71;100349.28;5072831;28;20283;-71
2022/02/01 03:31:51;;;;;;;;;;;;;;;-18.59;85.94;100352.66;5072705;28;19925;-70
2022/02/01 03:34:18;;;;;;;;;;;;;;;-18.75;85.91;100341.91;5072637;28;20275;-70
2022/02/01 03:36:45;;;;;;;;;;;;;;;-18.67;85.90;100348.13;5073004;28;19925;-69
2022/02/01 03:39:12;;;;;;;;;;;;;;;-18.69;85.67;100344.69;5072801;28;19924;-71
2022/02/01 03:41:38;;;;;;;;;;;;;;;-18.69;85.95;100346.31;5072605;28;19925;-69
2022/02/01 03:44:07;;;;;;;;;;;;;;;-18.63;85.96;100348.28;5072604;28;19925;-70
2022/02/01 03:46:33;;;;;;;;;;;;;;;-18.56;86.02;100337.94;5072632;28;19983;-70
2022/02/01 03:49:00;;;;;;;;;;;;;;;-18.67;86.25;100339.81;5072230;28;19924;-69
2022/02/01 03:51:27;;;;;;;;;;;;;;;-18.63;85.99;100345.81;5072250;28;20389;-70
2022/02/01 03:53:53;;;;;;;;;;;;;;;-18.45;86.46;100336.88;5072791;28;19925;-71
2022/02/01 03:56:20;;;;;;;;;;;;;;;-18.30;86.25;100339.31;5072849;28;19924;-69
2022/02/01 03:58:46;;;;;;;;;;;;;;;-18.33;86.24;100342.50;5072675;28;19931;-70
2022/02/01 04:01:14;;;;;;;;;;;;;;;-18.32;86.66;100333.41;5072144;28;19932;-70
2022/02/01 04:03:41;;;;;;;;;;;;;;;-18.12;86.20;100317.94;5072428;28;19934;-69
2022/02/01 04:06:07;;;;;;;;;;;;;;;-18.02;86.03;100319.28;5072621;28;19935;-71
2022/02/01 04:08:34;;;;;;;;;;;;;;;-17.98;86.12;100315.31;5072448;28;19932;-69
2022/02/01 04:11:01;;;;;;;;;;;;;;;-17.95;85.56;100311.38;5072474;28;20035;-70
2022/02/01 04:13:27;;;;;;;;;;;;;;;-17.96;86.02;100317.09;5072064;28;19924;-70
2022/02/01 04:15:54;;;;;;;;;;;;;;;-17.82;86.83;100310.38;5072095;28;20011;-71
2022/02/01 04:18:22;;;;;;;;;;;;;;;-17.93;87.47;100314.78;5072548;28;19924;-70
2022/02/01 04:20:49;;;;;;;;;;;;;;;-17.69;87.01;100314.31;5072699;28;19932;-70
2022/02/01 04:23:15;;;;;;;;;;;;;;;-17.59;87.13;100314.84;5072514;28;19931;-71
2022/02/01 04:25:42;;;;;;;;;;;;;;;-17.60;87.27;100299.84;5072428;28;19931;-71
2022/02/01 04:28:08;;;;;;;;;;;;;;;-17.54;87.48;100299.28;5072048;28;19935;-71
2022/02/01 04:30:35;;;;;;;;;;;;;;;-17.43;87.31;100296.56;5071831;28;19925;-70
2022/02/01 04:33:06;;;;;;;;;;;;;;;-17.26;86.93;100287.47;5072177;28;19928;-70
2022/02/01 04:35:35;;;;;;;;;;;;;;;-17.06;86.68;100290.91;5072038;28;19971;-70
2022/02/01 04:38:01;;;;;;;;;;;;;;;-16.97;87.02;100276.41;5072038;28;19925;-70
2022/02/01 04:40:29;;;;;;;;;;;;;;;-16.87;87.11;100287.66;5072080;28;19931;-70
2022/02/01 04:42:56;;;;;;;;;;;;;;;-16.79;87.29;100278.06;5071908;28;19924;-69
2022/02/01 04:45:24;;;;;;;;;;;;;;;-16.61;88.51;100270.56;5072374;28;19924;-70
2022/02/01 04:47:51;;;;;;;;;;;;;;;-16.68;89.17;100276.91;5072263;28;20007;-69
2022/02/01 04:50:20;;;;;;;;;;;;;;;-16.47;88.74;100265.41;5072099;28;19924;-69
2022/02/01 04:52:51;;;;;;;;;;;;;;;-16.36;88.66;100260.94;5071962;28;19940;-69
2022/02/01 04:55:19;;;;;;;;;;;;;;;-16.31;89.67;100263.63;5071913;28;19925;-69
2022/02/01 04:57:53;;;;;;;;;;;;;;;-16.20;89.45;100259.13;5071699;28;19931;-70
2022/02/01 05:00:21;;;;;;;;;;;;;;;-16.08;88.59;100258.03;5072054;28;19924;-71
2022/02/01 05:02:47;;;;;;;;;;;;;;;-15.87;89.18;100255.63;5075060;28;20374;-72
2022/02/01 05:05:14;;;;;;;;;;;;;;;-15.76;89.61;100246.09;5075464;28;19935;-71
2022/02/01 05:07:41;;;;;;;;;;;;;;;-15.68;88.78;100247.22;5075378;28;19924;-70
2022/02/01 05:10:09;;;;;;;;;;;;;;;-15.62;89.93;100242.47;5074955;28;20387;-70
2022/02/01 05:12:37;;;;;;;;;;;;;;;-15.46;89.40;100238.13;5075475;28;19932;-68
2022/02/01 05:15:07;;;;;;;;;;;;;;;-15.41;88.72;100236.69;5075054;28;19928;-69
2022/02/01 05:17:35;;;;;;;;;;;;;;;-15.33;88.51;100240.34;5075264;28;20358;-68
2022/02/01 05:20:14;;;;;;;;;;;;;;;-15.30;88.46;100237.13;5075382;28;19953;-70
2022/02/01 05:22:41;;;;;;;;;;;;;;;-15.22;89.14;100236.66;5075105;28;19924;-70
2022/02/01 05:25:10;;;;;;;;;;;;;;;-15.25;88.90;100229.03;5074982;28;20449;-68
2022/02/01 05:27:38;;;;;;;;;;;;;;;-15.26;89.24;100221.47;5074804;28;20267;-68
2022/02/01 05:30:05;;;;;;;;;;;;;;;-15.20;89.70;100220.09;5074983;28;19929;-70
2022/02/01 05:32:32;;;;;;;;;;;;;;;-15.23;89.66;100217.47;5075072;28;19925;-68
2022/02/01 05:34:59;;;;;;;;;;;;;;;-15.11;89.06;100207.13;5074557;28;19931;-68
2022/02/01 05:37:25;;;;;;;;;;;;;;;-15.08;89.00;100211.38;5074872;28;19924;-69
2022/02/01 05:39:52;;;;;;;;;;;;;;;-15.02;88.88;100199.16;5074671;28;20019;-67
2022/02/01 05:42:26;;;;;;;;;;;;;;;-15.09;88.73;100210.53;5074858;28;19932;-69
2022/02/01 05:44:53;;;;;;;;;;;;;;;-15.04;88.73;100206.56;5074820;28;19930;-69
2022/02/01 05:47:19;;;;;;;;;;;;;;;-15.05;88.62;100199.88;5075139;28;19928;-67
2022/02/01 05:49:46;;;;;;;;;;;;;;;-15.00;88.66;100195.03;5074374;28;19925;-70
2022/02/01 05:52:13;;;;;;;;;;;;;;;-15.01;88.93;100190.84;5074606;28;20014;-71
2022/02/01 05:54:39;;;;;;;;;;;;;;;-15.03;88.70;100199.94;5074669;28;19924;-67
2022/02/01 05:57:08;;;;;;;;;;;;;;;-15.06;89.14;100202.31;5074294;28;20268;-67
2022/02/01 05:59:37;;;;;;;;;;;;;;;-14.96;88.46;100186.88;5074441;28;20015;-67
2022/02/01 06:02:04;;;;;;;;;;;;;;;-14.98;88.76;100169.34;5074040;28;19946;-67
2022/02/01 06:04:31;;;;;;;;;;;;;;;-15.07;88.99;100183.16;5074480;28;19924;-67
2022/02/01 06:06:57;;;;;;;;;;;;;;;-14.90;89.14;100168.78;5074391;28;19924;-70
2022/02/01 06:09:24;;;;;;;;;;;;;;;-14.97;89.71;100166.06;5074443;28;19929;-67
2022/02/01 06:11:51;;;;;;;;;;;;;;;-14.90;88.47;100166.28;5074083;28;19924;-67
2022/02/01 06:14:17;;;;;;;;;;;;;;;-14.92;88.19;100166.25;5073277;28;20387;-67
2022/02/01 06:16:45;;;;;;;;;;;;;;;-14.93;88.63;100164.53;5074080;28;19932;-69
2022/02/01 06:19:12;;;;;;;;;;;;;;;-14.99;88.64;100161.81;5073985;28;19924;-68
2022/02/01 06:21:39;;;;;;;;;;;;;;;-14.89;88.96;100163.03;5053512;28;19933;-67
2022/02/01 06:24:07;;;;;;;;;;;;;;;-14.95;88.79;100164.50;5052701;28;19928;-67
2022/02/01 06:26:34;;;;;;;;;;;;;;;-15.02;89.38;100170.03;5069870;28;19931;-67
2022/02/01 06:29:00;;;;;;;;;;;;;;;-15.03;89.73;100172.47;5052467;28;19933;-68
2022/02/01 06:31:27;;;;;;;;;;;;;;;-15.11;89.57;100164.69;5059256;28;19924;-70
2022/02/01 06:33:55;;;;;;;;;;;;;;;-15.01;89.22;100163.41;5072705;28;19924;-71
2022/02/01 06:36:21;;;;;;;;;;;;;;;-15.08;89.48;100159.81;5055549;28;19931;-67
2022/02/01 06:38:48;;;;;;;;;;;;;;;-15.16;89.27;100164.50;5068846;28;19925;-68
2022/02/01 06:41:15;;;;;;;;;;;;;;;-15.19;89.80;100166.03;5072582;28;19925;-67
2022/02/01 06:43:41;;;;;;;;;;;;;;;-15.08;89.81;100158.97;5072475;28;19925;-67
2022/02/01 06:46:08;;;;;;;;;;;;;;;-15.11;89.50;100158.84;5072349;28;20429;-68
2022/02/01 06:48:34;;;;;;;;;;;;;;;-15.16;89.49;100158.66;5072083;28;20268;-67
2022/02/01 06:51:02;;;;;;;;;;;;;;;-15.05;89.44;100159.06;5071735;28;20002;-69
2022/02/01 06:53:33;;;;;;;;;;;;;;;-15.07;89.52;100159.03;5072510;28;19924;-68
2022/02/01 06:56:06;;;;;;;;;;;;;;;-15.11;89.18;100164.69;5062233;28;19971;-70
2022/02/01 06:58:32;;;;;;;;;;;;;;;-15.17;89.37;100166.94;5051995;28;19929;-68
2022/02/01 07:00:59;;;;;;;;;;;;;;;-15.08;89.54;100157.31;5051705;28;19940;-71
2022/02/01 07:03:26;;;;;;;;;;;;;;;-15.01;89.75;100155.91;5052224;28;20383;-69
2022/02/01 07:05:54;;;;;;;;;;;;;;;-15.01;89.56;100150.91;5062207;28;19932;-71
2022/02/01 07:08:22;;;;;;;;;;;;;;;-14.94;88.55;100152.84;5071591;28;19925;-62
2022/02/01 07:10:49;;;;;;;;;;;;;;;-14.92;89.80;100152.13;5071409;28;19934;-67
2022/02/01 07:13:16;;;;;;;;;;;;;;;-14.95;89.70;100151.13;5068074;28;19925;-71
2022/02/01 07:15:43;;;;;;;;;;;;;;;-14.93;89.10;100154.53;5052044;28;19972;-70
2022/02/01 07:18:10;;;;;;;;;;;;;;;-14.96;89.35;100152.78;5051560;28;19925;-67
2022/02/01 07:20:36;;;;;;;;;;;;;;;-15.02;89.38;100159.22;5050832;28;19935;-67
2022/02/01 07:23:04;;;;;;;;;;;;;;;-14.85;89.50;100168.16;5050655;28;19925;-70
2022/02/01 07:25:43;;;;;;;;;;;;;;;-14.79;89.26;100163.41;5069476;28;19964;-71
2022/02/01 07:28:09;;;;;;;;;;;;;;;-14.80;89.89;100168.34;5071271;28;19932;-67
2022/02/01 07:30:36;;;;;;;;;;;;;;;-14.75;89.84;100159.38;5069333;28;19924;-70
2022/02/01 07:33:02;;;;;;;;;;;;;;;-14.66;89.55;100163.88;5070699;28;19947;-65
2022/02/01 07:35:30;;;;;;;;;;;;;;;-14.66;89.46;100169.72;5071191;28;19952;-63
2022/02/01 07:37:58;;;;;;;;;;;;;;;-14.66;90.20;100162.22;5070212;28;19971;-66
2022/02/01 07:40:24;;;;;;;;;;;;;;;-14.46;89.85;100170.41;5070236;28;20396;-70
2022/02/01 07:42:52;;;;;;;;;;;;;;;-14.45;89.60;100171.25;5070753;28;19939;-67
2022/02/01 07:45:23;;;;;;;;;;;;;;;-14.44;90.11;100165.47;5049746;28;20304;-64
2022/02/01 07:47:49;;;;;;;;;;;;;;;-14.31;89.59;100162.59;5050462;28;19924;-65
2022/02/01 07:50:16;;;;;;;;;;;;;;;-14.36;89.58;100159.09;5049815;28;19925;-71
2022/02/01 07:52:42;;;;;;;;;;;;;;;-14.31;89.50;100160.09;5061329;28;19924;-69
2022/02/01 07:55:09;;;;;;;;;;;;;;;-14.20;90.08;100156.34;5070513;28;19924;-71
2022/02/01 07:57:36;;;;;;;;;;;;;;;-14.18;89.67;100157.22;5070823;28;19924;-63
2022/02/01 08:00:04;;;;;;;;;;;;;;;-14.18;89.61;100156.38;5069749;28;19932;-70
2022/02/01 08:02:31;;;;;;;;;;;;;;;-14.02;89.37;100150.25;5070219;28;20379;-69
2022/02/01 08:04:59;;;;;;;;;;;;;;;-14.04;89.88;100146.06;5070318;28;19971;-71
2022/02/01 08:07:26;;;;;;;;;;;;;;;-14.05;89.95;100149.38;5070438;28;19933;-70
2022/02/01 08:09:56;;;;;;;;;;;;;;;-13.92;89.36;100153.13;5069549;28;19933;-70
2022/02/01 08:13:22;;;;;;;;;;;;;;;-13.87;89.52;100141.63;5052443;28;19935;-71
2022/02/01 08:18:31;;;;;;;;;;;;;;;-13.67;89.54;100146.44;5067720;28;20022;-71
2022/02/01 08:21:01;;;;;;;;;;;;;;;-13.61;89.38;100141.66;5070565;28;19931;-69
2022/02/01 08:23:28;;;;;;;;;;;;;;;-13.63;89.94;100134.06;5070282;28;19929;-63
2022/02/01 08:25:55;;;;;;;;;;;;;;;-13.47;89.82;100137.06;5055960;28;19932;-66
2022/02/01 08:28:22;;;;;;;;;;;;;;;-13.46;89.67;100131.25;5050123;28;19924;-71
2022/02/01 08:30:51;;;;;;;;;;;;;;;-13.36;89.81;100124.88;5069329;28;20272;-70
2022/02/01 08:33:17;;;;;;;;;;;;;;;-13.24;88.88;100122.72;5069807;28;19931;-70
2022/02/01 08:35:44;;;;;;;;;;;;;;;-13.21;88.46;100126.16;5070425;28;19932;-71
2022/02/01 08:38:11;;;;;;;;;;;;;;;-13.10;88.43;100121.50;5073644;28;19932;-71
2022/02/01 08:40:37;;;;;;;;;;;;;;;-13.02;88.48;100116.69;5073275;28;19932;-71
2022/02/01 08:43:04;;;;;;;;;;;;;;;-12.95;88.37;100106.06;5073049;28;19940;-64
2022/02/01 08:45:31;;;;;;;;;;;;;;;-12.94;88.79;100106.13;5074610;28;19939;-68
2022/02/01 08:47:59;;;;;;;;;;;;;;;-12.98;88.41;100099.31;5064860;28;20286;-69
2022/02/01 08:50:29;;;;;;;;;;;;;;;-12.95;88.35;100104.41;5073426;28;19932;-72
2022/02/01 08:52:58;;;;;;;;;;;;;;;-12.94;87.97;100097.75;5073308;28;19925;-70
2022/02/01 08:55:34;;;;;;;;;;;;;;;-12.98;88.73;100093.47;5073573;28;19929;-63
2022/02/01 08:58:01;;;;;;;;;;;;;;;-12.91;88.73;100092.00;5072828;28;20034;-70
2022/02/01 09:00:28;;;;;;;;;;;;;;;-13.00;88.24;100090.91;5073139;28;20393;-67
2022/02/01 09:02:56;;;;;;;;;;;;;;;-12.93;88.76;100086.94;5073198;28;19935;-63
2022/02/01 09:05:25;;;;;;;;;;;;;;;-12.89;88.96;100086.22;5073040;28;19943;-68
2022/02/01 09:07:51;;;;;;;;;;;;;;;-12.84;88.67;100073.81;5073143;28;19948;-70
2022/02/01 09:10:18;;;;;;;;;;;;;;;-12.81;88.78;100069.75;5073656;28;19932;-64
2022/02/01 09:12:44;;;;;;;;;;;;;;;-12.97;88.96;100070.97;5072948;28;19924;-70
2022/02/01 09:15:11;;;;;;;;;;;;;;;-12.97;88.70;100065.09;5072419;28;19931;-66
2022/02/01 09:17:38;;;;;;;;;;;;;;;-12.87;88.21;100062.03;5074041;28;19928;-70
2022/02/01 09:20:05;;;;;;;;;;;;;;;-12.84;88.66;100063.78;5072997;28;19924;-69
2022/02/01 09:22:33;;;;;;;;;;;;;;;-12.81;88.14;100068.91;5073184;28;19936;-68
2022/02/01 09:24:59;;;;;;;;;;;;;;;-12.89;88.45;100058.66;5072610;28;19925;-69
2022/02/01 09:27:26;;;;;;;;;;;;;;;-12.79;88.29;100047.22;5067307;28;19929;-67
2022/02/01 09:29:53;;;;;;;;;;;;;;;-12.79;88.15;100049.72;5072800;28;19944;-69
2022/02/01 09:32:21;;;;;;;;;;;;;;;-12.67;88.31;100050.06;5071832;28;19932;-70
2022/02/01 09:34:48;;;;;;;;;;;;;;;-12.63;87.75;100049.38;5072687;28;19932;-65
2022/02/01 09:37:14;;;;;;;;;;;;;;;-12.72;88.28;100044.09;5072163;28;19925;-63
2022/02/01 09:39:42;;;;;;;;;;;;;;;-12.60;88.45;100038.56;5072664;28;19924;-66
2022/02/01 09:42:09;;;;;;;;;;;;;;;-12.58;87.95;100036.97;5073153;28;19931;-70
2022/02/01 09:44:36;;;;;;;;;;;;;;;-12.54;87.60;100032.03;5072590;28;19925;-67
2022/02/01 09:47:03;;;;;;;;;;;;;;;-12.47;88.04;100033.06;5072082;28;19950;-64
2022/02/01 09:49:29;;;;;;;;;;;;;;;-12.45;88.15;100033.13;5069779;28;19924;-70
2022/02/01 09:51:58;;;;;;;;;;;;;;;-12.35;87.49;100030.88;5064038;28;19925;-70
2022/02/01 09:54:26;;;;;;;;;;;;;;;-12.30;87.66;100029.34;5072497;28;19994;-70
2022/02/01 09:56:54;;;;;;;;;;;;;;;-12.24;86.79;100023.63;5072137;28;20325;-67
2022/02/01 09:59:22;;;;;;;;;;;;;;;-12.31;87.04;100020.09;5072288;28;20286;-67
2022/02/01 10:01:55;;;;;;;;;;;;;;;-12.19;86.94;100012.06;5070424;28;19931;-68
2022/02/01 10:04:25;;;;;;;;;;;;;;;-12.19;86.79;100011.22;5071972;28;19971;-66
2022/02/01 10:06:51;;;;;;;;;;;;;;;-12.17;87.05;100012.09;5072589;28;19932;-70
2022/02/01 10:09:18;;;;;;;;;;;;;;;-12.13;86.80;100008.84;5069483;28;19924;-69
2022/02/01 10:11:46;;;;;;;;;;;;;;;-12.13;87.03;100006.34;5071057;28;19931;-70
2022/02/01 10:14:22;;;;;;;;;;;;;;;-12.25;86.98;100008.53;5072329;28;19925;-66
2022/02/01 10:16:52;;;;;;;;;;;;;;;-12.18;86.60;100008.72;5071894;28;19931;-66
2022/02/01 10:19:19;;;;;;;;;;;;;;;-12.11;86.87;100012.25;5071914;28;19955;-69
2022/02/01 10:21:49;;;;;;;;;;;;;;;-12.24;87.64;100011.09;5049627;28;20360;-70
2022/02/01 10:24:27;;;;;;;;;;;;;;;-12.18;87.26;100000.38;5051214;28;20291;-65
2022/02/01 10:26:53;;;;;;;;;;;;;;;-12.14;86.98;100004.66;5051230;28;19929;-68
2022/02/01 10:29:23;;;;;;;;;;;;;;;-12.12;87.88;100003.88;5031469;28;20360;-70
2022/02/01 10:31:54;;;;;;;;;;;;;;;-12.09;86.56;100003.94;5031396;28;19925;-69
2022/02/01 10:34:40;;;;;;;;;;;;;;;-12.07;87.06;100001.50;5038446;28;20423;-67
2022/02/01 10:37:16;;;;;;;;;;;;;;;-12.09;87.38;99998.09;5032475;28;20095;-69
2022/02/01 10:39:43;;;;;;;;;;;;;;;-12.17;87.94;99997.06;5031531;28;20375;-70
2022/02/01 10:42:12;;;;;;;;;;;;;;;-12.17;88.07;99992.88;5052203;28;19987;-69
2022/02/01 10:44:41;;;;;;;;;;;;;;;-12.12;87.75;99985.47;5050649;28;19931;-71
2022/02/01 10:47:07;;;;;;;;;;;;;;;-12.00;87.39;99982.41;5052050;28;19924;-70
2022/02/01 10:49:34;;;;;;;;;;;;;;;-12.02;88.25;99982.38;5032270;28;19925;-68
2022/02/01 10:52:02;;;;;;;;;;;;;;;-11.99;87.89;99984.13;5031592;28;19925;-71
2022/02/01 10:54:29;;;;;;;;;;;;;;;-11.98;87.91;99975.75;5037798;28;20019;-69
2022/02/01 10:56:55;;;;;;;;;;;;;;;-11.96;87.71;99969.13;5051127;28;19991;-70
2022/02/01 10:59:23;;;;;;;;;;;;;;;-11.97;87.55;99965.78;5050843;28;19925;-70
2022/02/01 11:01:52;;;;;;;;;;;;;;;-12.07;88.06;99962.19;5051418;28;19949;-67
2022/02/01 11:04:20;;;;;;;;;;;;;;;-11.96;87.46;99959.09;5049757;28;19925;-64
2022/02/01 11:06:50;;;;;;;;;;;;;;;-11.89;87.61;99954.25;5050911;28;19925;-63
2022/02/01 11:09:17;;;;;;;;;;;;;;;-11.97;87.53;99950.72;5051384;28;19950;-65
2022/02/01 11:11:50;;;;;;;;;;;;;;;-11.94;87.73;99950.78;5050076;28;19925;-63
2022/02/01 11:14:19;;;;;;;;;;;;;;;-11.89;87.57;99946.72;5030941;28;19929;-68
2022/02/01 11:16:45;;;;;;;;;;;;;;;-11.88;88.53;99947.56;5030997;28;20375;-70
2022/02/01 11:19:13;;;;;;;;;;;;;;;-11.78;87.83;99953.63;5031570;28;19948;-68
2022/02/01 11:21:44;;;;;;;;;;;;;;;-11.82;87.68;99952.69;5045610;28;19925;-70
2022/02/01 11:24:21;;;;;;;;;;;;;;;-11.81;87.11;99953.53;5050296;28;19925;-63
2022/02/01 11:26:51;;;;;;;;;;;;;;;-11.81;88.22;99951.03;5049603;28;19925;-69
2022/02/01 11:29:39;;;;;;;;;;;;;;;-11.75;88.26;99956.19;5050790;28;19960;-63
2022/02/01 11:32:06;;;;;;;;;;;;;;;-11.77;87.88;99947.75;5050209;28;19924;-67
2022/02/01 11:34:35;;;;;;;;;;;;;;;-11.75;88.49;99951.16;5050573;28;20371;-68
2022/02/01 11:37:03;;;;;;;;;;;;;;;-11.58;88.21;99947.38;5050499;28;19925;-70
2022/02/01 11:39:31;;;;;;;;;;;;;;;-11.61;88.09;99944.75;5049811;28;19932;-70
2022/02/01 11:41:58;;;;;;;;;;;;;;;-11.73;88.74;99937.84;5050358;28;19928;-68
2022/02/01 11:44:26;;;;;;;;;;;;;;;-11.57;88.13;99939.00;5050393;28;19932;-70
2022/02/01 11:47:07;;;;;;;;;;;;;;;-11.62;88.46;99935.56;5050717;28;20016;-65
2022/02/01 11:49:35;;;;;;;;;;;;;;;-11.49;87.34;99940.00;5049730;28;19925;-69
2022/02/01 11:52:09;;;;;;;;;;;;;;;-11.52;87.62;99932.41;5070488;28;20007;-70
2022/02/01 11:54:35;;;;;;;;;;;;;;;-11.51;87.79;99926.56;5069219;28;19928;-70
2022/02/01 11:57:11;;;;;;;;;;;;;;;-11.47;87.87;99927.50;5070173;28;19925;-66
2022/02/01 11:59:37;;;;;;;;;;;;;;;-11.49;87.83;99926.63;5069966;28;19932;-69
2022/02/01 12:02:06;;;;;;;;;;;;;;;-11.41;87.89;99928.44;5070746;28;19935;-70
2022/02/01 12:04:43;;;;;;;;;;;;;;;-11.46;87.87;99927.50;5070031;28;20027;-69
2022/02/01 12:07:09;;;;;;;;;;;;;;;-11.38;88.49;99927.66;5067815;28;19925;-66
2022/02/01 12:09:40;;;;;;;;;;;;;;;-11.34;87.89;99929.44;5070941;28;20390;-69
2022/02/01 12:12:07;;;;;;;;;;;;;;;-11.38;87.74;99925.16;5071680;28;19936;-68
2022/02/01 12:14:34;;;;;;;;;;;;;;;-11.30;88.01;99923.66;5074271;28;19924;-70
2022/02/01 12:17:00;;;;;;;;;;;;;;;-11.32;88.52;99920.28;5073895;28;20433;-70
2022/02/01 12:19:30;;;;;;;;;;;;;;;-11.31;87.89;99918.59;5074009;28;19924;-63
2022/02/01 12:22:05;;;;;;;;;;;;;;;-11.30;87.74;99918.66;5074342;28;19925;-70
2022/02/01 12:24:32;;;;;;;;;;;;;;;-11.19;88.11;99918.84;5061412;28;20414;-70
2022/02/01 12:26:58;;;;;;;;;;;;;;;-11.22;87.99;99922.16;5053707;28;20275;-70
2022/02/01 12:29:26;;;;;;;;;;;;;;;-11.16;87.43;99915.56;5054115;28;19947;-70
2022/02/01 12:31:54;;;;;;;;;;;;;;;-11.19;87.71;99911.31;5053403;28;19933;-69
2022/02/01 12:34:21;;;;;;;;;;;;;;;-11.19;88.18;99911.31;5054602;28;19931;-69
2022/02/01 12:36:49;;;;;;;;;;;;;;;-11.19;88.01;99912.16;5053701;28;19933;-64
2022/02/01 12:39:21;;;;;;;;;;;;;;;-11.13;88.41;99906.41;5053951;28;19925;-69
2022/02/01 12:41:55;;;;;;;;;;;;;;;-11.10;87.94;99911.47;5054335;28;19925;-70
2022/02/01 12:47:07;;;;;;;;;;;;;;;-11.12;88.38;99903.09;5072962;28;19932;-70
2022/02/01 12:49:35;;;;;;;;;;;;;;;-11.07;88.51;99903.16;5074562;28;19933;-68
2022/02/01 12:52:01;;;;;;;;;;;;;;;-11.08;88.67;99903.97;5072847;28;20382;-69
2022/02/01 12:54:33;;;;;;;;;;;;;;;-11.22;88.45;99902.06;5073347;28;20310;-71
2022/02/01 12:57:06;;;;;;;;;;;;;;;-11.13;88.53;99896.34;5073511;28;19939;-70
2022/02/01 12:59:40;;;;;;;;;;;;;;;-11.08;88.33;99897.28;5073575;28;19924;-68
2022/02/01 13:02:07;;;;;;;;;;;;;;;-11.07;88.89;99896.47;5066940;28;20367;-70
2022/02/01 13:04:34;;;;;;;;;;;;;;;-11.11;88.81;99892.22;5073031;28;20286;-69
2022/02/01 13:07:01;;;;;;;;;;;;;;;-11.03;88.97;99897.38;5072428;28;19924;-68
2022/02/01 13:15:13;;;;;;;;;;;;;;;-11.09;88.35;99903.13;5072688;28;19981;-70
2022/02/01 13:17:44;;;;;;;;;;;;;;;-11.00;88.73;99908.31;5072570;28;20370;-68
2022/02/01 13:20:17;;;;;;;;;;;;;;;-11.09;88.55;99904.81;5061188;28;19974;-70
2022/02/01 13:22:51;;;;;;;;;;;;;;;-11.16;88.99;99901.31;5036160;28;19925;-63
2022/02/01 13:25:27;;;;;;;;;;;;;;;-10.99;88.28;99901.66;5041809;28;19924;-70
2022/02/01 13:27:55;;;;;;;;;;;;;;;-11.07;88.74;99890.59;5049504;28;19929;-68
2022/02/01 13:30:22;;;;;;;;;;;;;;;-10.99;88.51;99887.41;5033076;28;20383;-70
2022/02/01 13:32:49;;;;;;;;;;;;;;;-10.98;88.88;99884.06;5032578;28;19925;-70
2022/02/01 13:35:15;;;;;;;;;;;;;;;-10.92;88.54;99890.03;5032849;28;19925;-69